Time;durP1;ratioP1;P1;durP2;ratioP2;P2;SDS_P1;SDS_P2;PMS_P1;PMS_P2;Temp;Humidity;BMP_temperature;BMP_pressure;BME280_temperature;BME280_humidity;BME280_pressure;Samples;Min_cycle;Max_cycle;Signal;HPM_P1;HPM_P2
2023/05/04 00:02:58;;;;;;;4.15;2.40;;;7.80;99.90;;;;;;12492454;28;20056;-36
2023/05/04 00:09:00;;;;;;;6.38;3.10;;;7.90;99.90;;;;;;12478621;28;20049;-35
2023/05/04 00:15:03;;;;;;;8.27;2.85;;;7.80;99.90;;;;;;12474748;28;20121;-35
2023/05/04 00:21:05;;;;;;;5.78;2.85;;;7.70;99.90;;;;;;12451897;28;20038;-35
2023/05/04 00:27:09;;;;;;;7.55;2.58;;;7.60;99.90;;;;;;12493247;28;20144;-36
2023/05/04 00:33:10;;;;;;;6.43;2.88;;;7.40;99.90;;;;;;12494203;28;20053;-36
2023/05/04 00:39:12;;;;;;;7.25;2.83;;;7.30;99.90;;;;;;12501328;28;20057;-35
2023/05/04 00:45:14;;;;;;;7.43;2.95;;;7.50;99.90;;;;;;12487905;28;20509;-35
2023/05/04 00:51:19;;;;;;;9.95;3.08;;;7.30;99.90;;;;;;12495862;28;20054;-35
2023/05/04 00:57:21;;;;;;;5.35;2.72;;;7.30;99.90;;;;;;12495951;28;20073;-36
2023/05/04 01:03:24;;;;;;;6.80;2.67;;;7.30;99.90;;;;;;12488230;28;20083;-36
2023/05/04 01:09:32;;;;;;;7.05;3.10;;;7.30;99.90;;;;;;12484313;28;20060;-35
2023/05/04 01:15:35;;;;;;;7.22;3.20;;;7.40;99.90;;;;;;12446902;28;20045;-35
2023/05/04 01:21:37;;;;;;;6.45;2.90;;;7.00;99.90;;;;;;12478245;28;20042;-35
2023/05/04 01:27:48;;;;;;;5.57;2.80;;;7.10;99.90;;;;;;12485798;28;20049;-35
2023/05/04 01:33:54;;;;;;;8.27;3.40;;;7.20;99.90;;;;;;12490800;28;20159;-36
2023/05/04 01:39:56;;;;;;;6.97;2.75;;;7.10;99.90;;;;;;12491051;28;20176;-36
2023/05/04 01:45:58;;;;;;;6.75;2.55;;;7.30;99.90;;;;;;12493442;28;20124;-35
2023/05/04 01:52:00;;;;;;;11.88;3.00;;;7.40;99.90;;;;;;12484481;28;20053;-36
2023/05/04 01:58:02;;;;;;;6.50;3.25;;;7.80;99.90;;;;;;12483062;28;20478;-36
2023/05/04 02:04:04;;;;;;;10.80;3.38;;;7.50;99.90;;;;;;12489080;28;20409;-35
2023/05/04 02:10:07;;;;;;;8.32;3.10;;;7.50;99.90;;;;;;12467325;28;20061;-35
2023/05/04 02:16:09;;;;;;;7.55;3.20;;;7.70;99.90;;;;;;12429528;28;20106;-35
2023/05/04 02:22:11;;;;;;;6.32;2.97;;;7.50;99.90;;;;;;12484582;28;20412;-36
2023/05/04 02:28:13;;;;;;;6.18;2.70;;;7.40;99.90;;;;;;12491286;28;20037;-36
2023/05/04 02:34:14;;;;;;;7.35;2.45;;;7.50;99.90;;;;;;12476029;28;20038;-36
2023/05/04 02:40:16;;;;;;;5.75;2.90;;;7.60;99.90;;;;;;12484269;28;20071;-36
2023/05/04 02:46:18;;;;;;;7.40;2.83;;;7.60;99.90;;;;;;12481470;28;20045;-36
2023/05/04 02:52:21;;;;;;;6.35;2.58;;;7.60;99.90;;;;;;12490653;28;20053;-36
2023/05/04 02:58:23;;;;;;;6.38;2.95;;;7.60;99.90;;;;;;12480258;28;20539;-36
2023/05/04 03:04:24;;;;;;;6.30;2.80;;;7.50;99.90;;;;;;12493494;28;20110;-36
2023/05/04 03:10:30;;;;;;;7.28;3.10;;;7.50;99.90;;;;;;12473990;28;20413;-36
2023/05/04 03:16:31;;;;;;;5.80;3.30;;;7.30;99.90;;;;;;12489611;28;20140;-36
2023/05/04 03:22:33;;;;;;;7.93;2.92;;;7.30;99.90;;;;;;12507680;28;20045;-36
2023/05/04 03:28:35;;;;;;;6.00;2.90;;;6.90;99.90;;;;;;12474324;28;20052;-36
2023/05/04 03:34:37;;;;;;;7.05;3.20;;;6.70;99.90;;;;;;12475709;28;20056;-36
2023/05/04 03:40:39;;;;;;;6.45;2.97;;;7.10;99.90;;;;;;12480177;28;20183;-36
2023/05/04 03:46:40;;;;;;;8.30;3.20;;;7.10;99.90;;;;;;12497488;28;20049;-36
2023/05/04 03:52:42;;;;;;;5.57;2.85;;;7.20;99.90;;;;;;12485638;28;20045;-36
2023/05/04 03:58:44;;;;;;;6.15;2.92;;;7.30;99.90;;;;;;12481382;28;20132;-36
2023/05/04 04:04:46;;;;;;;9.88;3.03;;;7.30;99.90;;;;;;12513340;28;20126;-36
2023/05/04 04:10:48;;;;;;;11.05;3.20;;;7.50;99.90;;;;;;12482007;28;20072;-36
2023/05/04 04:16:50;;;;;;;9.77;3.05;;;8.20;99.90;;;;;;12484622;28;20132;-36
2023/05/04 04:22:51;;;;;;;6.45;2.70;;;8.20;99.90;;;;;;12490650;28;20579;-36
2023/05/04 04:28:53;;;;;;;5.03;2.75;;;8.50;99.90;;;;;;12503220;28;20119;-36
2023/05/04 04:34:55;;;;;;;6.82;3.15;;;8.40;99.90;;;;;;12469192;28;20129;-36
2023/05/04 04:40:57;;;;;;;6.78;3.20;;;7.80;99.90;;;;;;12488554;28;20862;-35
2023/05/04 04:46:59;;;;;;;6.50;2.80;;;7.80;99.90;;;;;;12471516;28;20452;-36
2023/05/04 04:53:02;;;;;;;7.22;3.00;;;8.40;99.90;;;;;;12492898;28;20045;-36
2023/05/04 04:59:04;;;;;;;5.18;2.90;;;8.70;99.90;;;;;;12479740;28;20045;-36
2023/05/04 05:05:06;;;;;;;5.65;3.10;;;9.30;99.90;;;;;;12472861;28;20100;-36
2023/05/04 05:11:09;;;;;;;8.30;3.10;;;9.50;99.90;;;;;;12475659;28;20438;-36
2023/05/04 05:17:11;;;;;;;6.97;3.05;;;9.30;99.90;;;;;;12470582;28;20128;-36
2023/05/04 05:23:15;;;;;;;8.52;3.42;;;9.30;99.90;;;;;;12494305;28;20175;-36
2023/05/04 05:29:17;;;;;;;10.82;3.15;;;9.30;99.90;;;;;;12488871;28;20049;-36
2023/05/04 05:35:18;;;;;;;5.22;2.60;;;8.50;99.90;;;;;;12490414;28;20052;-36
2023/05/04 05:41:21;;;;;;;5.93;3.10;;;9.80;99.90;;;;;;12502328;28;20519;-36
2023/05/04 05:47:23;;;;;;;5.50;2.63;;;10.40;99.90;;;;;;12502822;28;20124;-36
2023/05/04 05:53:25;;;;;;;8.55;3.17;;;10.50;99.90;;;;;;12472062;28;20049;-36
2023/05/04 05:59:27;;;;;;;7.72;3.28;;;10.40;99.90;;;;;;12433095;28;20049;-36
2023/05/04 06:05:29;;;;;;;9.02;3.38;;;10.40;99.90;;;;;;12457813;28;20783;-36
2023/05/04 06:11:31;;;;;;;8.60;3.85;;;10.30;99.90;;;;;;12439015;28;20075;-36
2023/05/04 06:17:33;;;;;;;9.05;3.70;;;10.10;99.90;;;;;;12465747;28;20056;-36
2023/05/04 06:23:35;;;;;;;10.40;3.22;;;10.00;99.90;;;;;;12459619;28;20081;-36
2023/05/04 06:29:39;;;;;;;8.30;3.17;;;10.00;99.90;;;;;;12448910;28;20057;-36
2023/05/04 06:35:41;;;;;;;6.23;3.33;;;10.20;99.90;;;;;;12460382;28;20137;-36
2023/05/04 06:41:43;;;;;;;12.82;4.20;;;10.40;99.90;;;;;;12449110;28;20554;-36
2023/05/04 06:47:45;;;;;;;10.05;3.50;;;10.40;99.90;;;;;;12468525;28;20441;-36
2023/05/04 06:53:47;;;;;;;6.60;3.22;;;10.40;99.90;;;;;;12445039;28;20390;-37
2023/05/04 06:59:51;;;;;;;8.75;3.58;;;10.70;99.90;;;;;;12498162;28;20137;-36
2023/05/04 07:05:53;;;;;;;7.70;3.40;;;10.40;99.90;;;;;;12459677;28;20042;-37
2023/05/04 07:11:55;;;;;;;8.40;3.17;;;10.30;99.90;;;;;;12452796;28;20082;-37
2023/05/04 07:17:57;;;;;;;8.23;3.10;;;10.50;99.90;;;;;;12441422;28;20046;-36
2023/05/04 07:23:58;;;;;;;9.63;3.42;;;10.10;99.90;;;;;;12438299;28;20042;-37
2023/05/04 07:30:01;;;;;;;8.32;3.50;;;10.00;99.90;;;;;;12444036;28;20200;-37
2023/05/04 07:36:03;;;;;;;6.40;2.95;;;10.30;99.90;;;;;;12430103;28;20061;-37
2023/05/04 07:42:06;;;;;;;4.65;2.80;;;11.00;99.90;;;;;;12428816;28;20042;-37
2023/05/04 07:48:08;;;;;;;5.80;2.60;;;11.60;99.90;;;;;;12419340;28;20042;-37
2023/05/04 07:54:10;;;;;;;5.50;2.67;;;12.30;99.90;;;;;;12422887;28;20065;-37
2023/05/04 08:00:13;;;;;;;4.47;2.40;;;12.20;99.90;;;;;;12442930;28;20095;-37
2023/05/04 08:06:15;;;;;;;7.18;2.45;;;12.00;99.90;;;;;;12458844;28;20050;-37
2023/05/04 08:12:18;;;;;;;11.23;2.50;;;12.10;99.90;;;;;;12486956;28;20041;-37
2023/05/04 08:18:20;;;;;;;5.78;2.50;;;12.70;99.90;;;;;;12449252;28;20049;-37
2023/05/04 08:24:22;;;;;;;9.20;2.97;;;12.70;99.90;;;;;;12502552;28;20485;-37
2023/05/04 08:30:30;;;;;;;7.47;2.80;;;13.00;99.90;;;;;;12497680;28;20049;-36
2023/05/04 08:36:32;;;;;;;4.97;2.70;;;13.30;99.90;;;;;;12485620;28;20140;-37
2023/05/04 08:42:33;;;;;;;6.07;2.40;;;13.70;99.90;;;;;;12500556;28;20065;-37
2023/05/04 08:48:36;;;;;;;6.70;2.55;;;14.10;99.90;;;;;;12475989;28;20047;-38
2023/05/04 08:54:38;;;;;;;6.43;2.83;;;14.00;99.90;;;;;;12486982;28;20055;-37
2023/05/04 09:00:42;;;;;;;8.60;2.70;;;13.60;99.90;;;;;;12502305;28;20053;-37
2023/05/04 09:06:46;;;;;;;4.80;2.58;;;13.80;99.90;;;;;;12506765;28;20062;-37
2023/05/04 09:12:49;;;;;;;3.83;2.45;;;14.10;99.90;;;;;;12491223;28;20053;-37
2023/05/04 09:18:50;;;;;;;11.68;2.50;;;14.40;99.90;;;;;;12473263;28;20111;-38
2023/05/04 09:24:53;;;;;;;4.72;2.40;;;14.30;99.90;;;;;;12482958;28;20045;-37
2023/05/04 09:30:59;;;;;;;6.18;2.35;;;14.50;99.90;;;;;;12488990;28;20053;-37
2023/05/04 09:37:02;;;;;;;5.53;2.30;;;15.10;99.90;;;;;;12482608;28;20054;-37
2023/05/04 09:43:05;;;;;;;6.47;2.67;;;15.30;99.90;;;;;;12487601;28;20041;-37
2023/05/04 09:49:07;;;;;;;5.28;2.20;;;15.20;99.90;;;;;;12479933;28;20053;-37
2023/05/04 09:55:14;;;;;;;9.13;2.45;;;15.50;99.90;;;;;;12483160;28;20046;-37
2023/05/04 10:01:16;;;;;;;9.00;3.65;;;15.60;99.90;;;;;;12487119;28;20062;-36
2023/05/04 10:07:19;;;;;;;7.68;2.80;;;15.60;99.90;;;;;;12478513;28;20045;-37
2023/05/04 10:13:23;;;;;;;8.23;2.87;;;15.80;99.90;;;;;;12482843;28;20382;-37
2023/05/04 10:19:58;;;;;;;7.57;2.95;;;16.00;99.90;;;;;;12486511;28;20080;-38
2023/05/04 10:26:33;;;;;;;6.28;2.60;;;16.20;99.90;;;;;;12486684;28;20049;-37
2023/05/04 10:32:38;;;;;;;6.35;2.90;;;16.60;99.90;;;;;;12479947;28;20045;-37
2023/05/04 10:38:41;;;;;;;8.30;2.67;;;17.10;99.90;;;;;;12506392;28;20480;-37
2023/05/04 10:44:56;;;;;;;6.68;3.00;;;17.10;99.90;;;;;;12477870;28;20132;-37
2023/05/04 10:50:57;;;;;;;6.85;2.92;;;16.90;99.90;;;;;;12465260;28;20075;-37
2023/05/04 10:57:11;;;;;;;9.70;2.80;;;17.00;99.90;;;;;;12474008;28;20050;-37
2023/05/04 11:03:14;;;;;;;5.68;3.13;;;17.30;99.90;;;;;;12481684;28;20053;-37
2023/05/04 11:09:16;;;;;;;7.40;2.70;;;17.40;99.90;;;;;;12494292;28;20057;-37
2023/05/04 11:15:20;;;;;;;5.55;2.53;;;17.80;99.90;;;;;;12476604;28;20041;-37
2023/05/04 11:21:26;;;;;;;6.38;3.30;;;18.00;99.90;;;;;;12479223;28;20046;-37
2023/05/04 11:27:29;;;;;;;9.60;3.25;;;17.90;99.90;;;;;;12488550;28;20049;-37
2023/05/04 11:33:30;;;;;;;9.10;2.77;;;18.30;99.90;;;;;;12492456;28;20164;-37
2023/05/04 11:39:32;;;;;;;8.45;2.90;;;18.40;99.90;;;;;;12477497;28;20192;-37
2023/05/04 11:45:36;;;;;;;6.15;2.45;;;18.00;99.90;;;;;;12489142;28;20205;-38
2023/05/04 11:51:38;;;;;;;5.70;2.50;;;17.90;99.90;;;;;;12495827;28;20049;-37
2023/05/04 11:57:40;;;;;;;7.00;2.85;;;17.50;99.90;;;;;;12487493;28;20148;-37
2023/05/04 12:03:41;;;;;;;7.82;2.85;;;17.70;99.90;;;;;;12490127;28;20046;-38
2023/05/04 12:09:54;;;;;;;6.80;2.40;;;17.90;99.90;;;;;;12489875;28;20191;-37
2023/05/04 12:16:06;;;;;;;5.47;2.45;;;18.60;99.90;;;;;;12502509;28;20071;-38
2023/05/04 12:22:08;;;;;;;8.70;2.28;;;19.00;99.90;;;;;;12509699;28;20049;-37
2023/05/04 12:28:10;;;;;;;6.57;2.53;;;19.00;99.90;;;;;;12499446;28;20049;-37
2023/05/04 12:34:12;;;;;;;7.45;2.50;;;18.60;99.90;;;;;;12478756;28;20502;-38
2023/05/04 12:40:14;;;;;;;33.65;4.28;;;18.60;99.90;;;;;;12492752;28;20102;-37
2023/05/04 12:46:29;;;;;;;5.35;2.30;;;18.90;99.90;;;;;;12489580;28;20065;-38
2023/05/04 12:52:32;;;;;;;7.50;2.60;;;19.00;99.90;;;;;;12491501;28;20084;-37
2023/05/04 12:58:34;;;;;;;7.22;2.20;;;19.50;99.90;;;;;;12485569;28;20090;-38
2023/05/04 13:04:36;;;;;;;5.18;2.35;;;19.00;99.90;;;;;;12500904;28;20386;-37
2023/05/04 13:10:38;;;;;;;5.55;2.22;;;19.00;99.90;;;;;;12489522;28;20107;-38
2023/05/04 13:16:40;;;;;;;7.30;1.95;;;19.40;99.90;;;;;;12460668;28;20049;-37
2023/05/04 13:22:46;;;;;;;4.43;2.00;;;19.00;99.90;;;;;;12487069;28;20045;-38
2023/05/04 13:28:49;;;;;;;4.60;2.05;;;18.70;99.90;;;;;;12457786;28;20187;-38
2023/05/04 13:34:51;;;;;;;;;;;19.30;99.90;;;;;;12474409;28;20099;-38
2023/05/04 13:40:54;;;;;;;7.00;1.75;;;19.30;99.90;;;;;;12466269;28;19968;-38
2023/05/04 13:46:58;;;;;;;5.60;1.97;;;19.70;99.90;;;;;;12477926;28;20064;-38
2023/05/04 13:53:00;;;;;;;3.83;2.13;;;19.80;99.90;;;;;;12501349;28;20046;-37
2023/05/04 13:59:02;;;;;;;4.30;2.05;;;19.50;99.90;;;;;;12488592;28;20041;-37
2023/05/04 14:05:04;;;;;;;5.45;1.83;;;19.60;99.90;;;;;;12485025;28;20115;-37
2023/05/04 14:11:06;;;;;;;6.35;1.88;;;19.50;99.90;;;;;;12495219;28;21408;-37
2023/05/04 14:17:08;;;;;;;3.88;1.88;;;19.30;99.90;;;;;;12490408;28;20049;-38
2023/05/04 14:23:10;;;;;;;4.68;1.77;;;19.40;99.90;;;;;;12499490;28;20041;-38
2023/05/04 14:29:12;;;;;;;3.88;2.08;;;19.50;99.90;;;;;;12494928;28;20045;-38
2023/05/04 14:35:15;;;;;;;4.88;1.70;;;19.70;99.90;;;;;;12489899;28;20049;-38
2023/05/04 14:41:17;;;;;;;3.80;1.50;;;20.20;99.90;;;;;;12479065;28;20046;-38
2023/05/04 14:47:19;;;;;;;5.82;1.90;;;20.10;99.90;;;;;;12488858;28;20056;-38
2023/05/04 14:53:22;;;;;;;5.38;1.75;;;20.40;99.90;;;;;;12489900;28;20073;-38
2023/05/04 14:59:25;;;;;;;5.50;1.57;;;20.10;99.90;;;;;;12482263;28;20104;-38
2023/05/04 15:05:27;;;;;;;4.78;1.77;;;19.90;99.90;;;;;;12495488;28;20436;-37
2023/05/04 15:11:29;;;;;;;5.57;1.95;;;20.10;99.90;;;;;;12494609;28;20041;-46
2023/05/04 15:17:31;;;;;;;5.00;1.65;;;20.00;99.90;;;;;;12475672;28;20121;-37
2023/05/04 15:23:32;;;;;;;4.65;1.88;;;19.90;99.90;;;;;;12513923;28;20435;-37
2023/05/04 15:29:34;;;;;;;7.93;1.77;;;20.00;99.90;;;;;;12490462;28;20586;-38
2023/05/04 15:35:37;;;;;;;7.07;1.88;;;19.90;99.90;;;;;;12501463;28;20107;-37
2023/05/04 15:41:39;;;;;;;4.80;1.90;;;20.00;99.90;;;;;;12501069;28;20081;-37
2023/05/04 15:47:41;;;;;;;5.55;1.88;;;19.80;99.90;;;;;;12469315;28;20041;-37
2023/05/04 15:53:43;;;;;;;7.28;1.70;;;19.80;99.90;;;;;;12493204;28;20041;-37
2023/05/04 15:59:46;;;;;;;5.07;1.90;;;19.80;99.90;;;;;;12502397;28;20109;-38
2023/05/04 16:05:50;;;;;;;6.30;1.80;;;19.60;99.90;;;;;;12499639;28;20049;-38
2023/05/04 16:11:52;;;;;;;6.18;1.45;;;19.50;99.90;;;;;;12492175;28;20056;-37
2023/05/04 16:17:55;;;;;;;6.57;1.60;;;19.70;99.90;;;;;;12501781;28;20057;-37
2023/05/04 16:23:57;;;;;;;6.13;1.40;;;19.90;99.90;;;;;;12505684;28;20041;-37
2023/05/04 16:29:58;;;;;;;3.40;1.67;;;20.00;99.90;;;;;;12473523;28;20459;-38
2023/05/04 16:36:05;;;;;;;4.72;1.90;;;19.50;99.90;;;;;;12471723;28;20049;-38
2023/05/04 16:42:07;;;;;;;5.35;1.40;;;19.50;99.90;;;;;;12486683;28;20132;-38
2023/05/04 16:48:09;;;;;;;5.03;1.77;;;19.40;99.90;;;;;;12492161;28;20045;-38
2023/05/04 16:54:11;;;;;;;4.40;1.80;;;19.40;99.90;;;;;;12470926;28;20052;-37
2023/05/04 17:00:14;;;;;;;5.22;1.73;;;19.10;99.90;;;;;;12492633;28;20053;-37
2023/05/04 17:06:16;;;;;;;7.40;1.63;;;18.90;99.90;;;;;;12495361;28;20084;-37
2023/05/04 17:12:18;;;;;;;4.40;1.70;;;18.60;99.90;;;;;;12499221;28;20097;-38
2023/05/04 17:18:20;;;;;;;5.85;1.75;;;18.40;99.90;;;;;;12487491;28;20049;-37
2023/05/04 17:24:22;;;;;;;6.00;1.60;;;18.30;99.90;;;;;;12478667;28;20128;-37
2023/05/04 17:30:24;;;;;;;4.00;1.65;;;18.20;99.90;;;;;;12491735;28;20193;-37
2023/05/04 17:36:26;;;;;;;7.25;1.67;;;18.10;99.90;;;;;;12508436;28;20060;-39
2023/05/04 17:42:28;;;;;;;5.07;1.70;;;17.90;99.90;;;;;;12491294;28;20413;-39
2023/05/04 17:48:30;;;;;;;4.70;2.05;;;17.90;99.90;;;;;;12480548;28;20188;-38
2023/05/04 17:54:32;;;;;;;7.00;1.95;;;17.70;99.90;;;;;;12480929;28;20092;-38
2023/05/04 18:00:34;;;;;;;6.45;1.55;;;17.60;99.90;;;;;;12502926;28;20114;-37
2023/05/04 18:06:36;;;;;;;7.53;2.13;;;17.50;99.90;;;;;;12494239;28;20117;-38
2023/05/04 18:12:38;;;;;;;5.75;2.22;;;17.40;99.90;;;;;;12470465;28;20135;-38
2023/05/04 18:18:40;;;;;;;9.10;2.20;;;17.30;99.90;;;;;;12444335;28;20041;-38
2023/05/04 18:24:41;;;;;;;4.70;2.17;;;17.10;99.90;;;;;;12459413;28;20071;-38
2023/05/04 18:30:43;;;;;;;4.88;2.45;;;17.00;99.90;;;;;;12482161;28;20041;-37
2023/05/04 18:36:45;;;;;;;11.05;3.20;;;16.80;99.90;;;;;;12458652;28;20056;-38
2023/05/04 18:42:51;;;;;;;7.05;2.85;;;16.70;99.90;;;;;;12457528;28;20409;-37
2023/05/04 18:48:55;;;;;;;;;;;16.60;99.90;;;;;;12480012;28;20056;-38
2023/05/04 18:54:57;;;;;;;6.97;2.80;;;16.50;99.90;;;;;;12459344;28;19936;-37
2023/05/04 19:00:59;;;;;;;6.95;3.00;;;16.30;99.90;;;;;;12487353;28;20050;-38
2023/05/04 19:07:01;;;;;;;7.75;2.67;;;16.20;99.90;;;;;;12464970;28;20617;-38
2023/05/04 19:13:03;;;;;;;9.15;2.60;;;16.00;99.90;;;;;;12483547;28;20041;-37
2023/05/04 19:19:06;;;;;;;7.45;2.92;;;15.90;99.90;;;;;;12462639;28;20052;-38
2023/05/04 19:25:08;;;;;;;12.70;3.30;;;15.80;99.90;;;;;;12468048;28;20437;-37
2023/05/04 19:31:11;;;;;;;7.13;2.88;;;15.70;99.90;;;;;;12470839;28;20042;-37
2023/05/04 19:37:13;;;;;;;8.23;2.92;;;15.60;99.90;;;;;;12460505;28;20042;-37
2023/05/04 19:43:15;;;;;;;10.65;3.22;;;15.50;99.90;;;;;;12449744;28;20489;-37
2023/05/04 19:49:17;;;;;;;5.55;2.92;;;15.50;99.90;;;;;;12468918;28;20504;-37
2023/05/04 19:55:19;;;;;;;8.10;3.10;;;15.40;99.90;;;;;;12494280;28;20124;-37
2023/05/04 20:01:21;;;;;;;6.90;3.63;;;15.30;99.90;;;;;;12496723;28;20049;-37
2023/05/04 20:07:23;;;;;;;9.75;2.85;;;15.20;99.90;;;;;;12507883;28;20068;-38
2023/05/04 20:13:25;;;;;;;6.18;2.55;;;15.20;99.90;;;;;;12483617;28;20078;-37
2023/05/04 20:19:27;;;;;;;10.65;2.90;;;15.10;99.90;;;;;;12477622;28;20055;-37
2023/05/04 20:25:30;;;;;;;9.00;2.80;;;15.00;99.90;;;;;;12487028;28;20042;-37
2023/05/04 20:31:32;;;;;;;8.15;3.20;;;15.00;99.90;;;;;;12490709;28;20041;-37
2023/05/04 20:37:34;;;;;;;9.95;3.50;;;14.90;99.90;;;;;;12492585;28;20056;-37
2023/05/04 20:43:36;;;;;;;6.95;3.00;;;15.00;99.90;;;;;;12499372;28;20045;-38
2023/05/04 20:49:38;;;;;;;6.38;3.13;;;14.90;99.90;;;;;;12498170;28;20168;-37
2023/05/04 20:55:39;;;;;;;12.38;2.95;;;14.80;99.90;;;;;;12462082;28;20042;-37
2023/05/04 21:01:41;;;;;;;5.75;2.80;;;14.80;99.90;;;;;;12492866;28;20128;-37
2023/05/04 21:07:43;;;;;;;9.18;2.90;;;14.80;99.90;;;;;;12487204;28;20540;-38
2023/05/04 21:13:45;;;;;;;10.38;2.85;;;14.80;99.90;;;;;;12492704;28;20107;-37
2023/05/04 21:19:47;;;;;;;8.88;3.20;;;14.80;99.90;;;;;;12502623;28;20076;-37
2023/05/04 21:25:49;;;;;;;8.68;3.20;;;14.70;99.90;;;;;;12490414;28;20045;-38
2023/05/04 21:31:51;;;;;;;5.90;2.97;;;14.60;99.90;;;;;;12491338;28;20045;-38
2023/05/04 21:37:53;;;;;;;6.18;2.83;;;14.50;99.90;;;;;;12479553;28;20187;-37
2023/05/04 21:43:55;;;;;;;7.65;3.13;;;14.40;99.90;;;;;;12477714;28;20049;-37
2023/05/04 21:49:56;;;;;;;7.05;3.28;;;14.30;99.90;;;;;;12492428;28;20060;-38
2023/05/04 21:56:08;;;;;;;9.93;3.08;;;14.30;99.90;;;;;;12475898;28;20071;-37
2023/05/04 22:02:10;;;;;;;9.75;3.00;;;14.00;99.90;;;;;;12490811;28;20041;-37
2023/05/04 22:08:12;;;;;;;10.15;2.53;;;13.90;99.90;;;;;;12495914;28;20106;-37
2023/05/04 22:14:14;;;;;;;9.00;2.80;;;14.00;99.90;;;;;;12475509;28;20560;-37
2023/05/04 22:20:16;;;;;;;8.68;2.50;;;14.00;99.90;;;;;;12493258;28;20516;-37
2023/05/04 22:26:18;;;;;;;6.28;2.90;;;14.00;99.90;;;;;;12485293;28;20448;-37
2023/05/04 22:32:20;;;;;;;6.95;2.88;;;13.90;99.90;;;;;;12474297;28;20103;-37
2023/05/04 22:38:22;;;;;;;8.18;2.80;;;14.10;99.90;;;;;;12471999;28;20096;-37
2023/05/04 22:44:24;;;;;;;7.20;2.45;;;14.20;99.90;;;;;;12483512;28;20041;-37
2023/05/04 22:50:26;;;;;;;6.60;2.70;;;14.10;99.90;;;;;;12487549;28;20049;-37
2023/05/04 22:56:28;;;;;;;7.35;2.80;;;14.00;99.90;;;;;;12488486;28;20049;-37
2023/05/04 23:02:29;;;;;;;7.10;2.70;;;13.80;99.90;;;;;;12482169;28;20136;-37
2023/05/04 23:08:31;;;;;;;9.20;2.90;;;13.70;99.90;;;;;;12464919;28;20053;-37
2023/05/04 23:14:33;;;;;;;8.55;2.85;;;13.70;99.90;;;;;;12488310;28;20046;-37
2023/05/04 23:20:36;;;;;;;4.72;2.67;;;13.80;99.90;;;;;;12480780;28;20046;-37
2023/05/04 23:26:38;;;;;;;7.35;3.22;;;13.90;99.90;;;;;;12492644;28;20045;-37
2023/05/04 23:32:40;;;;;;;7.70;3.55;;;13.90;99.90;;;;;;12475027;28;20541;-37
2023/05/04 23:38:42;;;;;;;7.47;3.38;;;13.50;99.90;;;;;;12504290;28;20053;-37
2023/05/04 23:44:43;;;;;;;8.27;3.10;;;13.40;99.90;;;;;;12491756;28;20494;-37
2023/05/04 23:50:52;;;;;;;7.72;4.07;;;13.30;99.90;;;;;;12503361;28;20048;-37
2023/05/04 23:56:54;;;;;;;11.95;3.63;;;13.10;99.90;;;;;;12500372;28;20033;-37
